Catania / Fontanarossa Airport LICC

Flugplatz Daten

Name: Catania / Fontanarossa Airport

Ident: LICC

Lat: 37,46680069

Long: 15,06639957

Platzhöhe: 39 ft

IataCode: CTA

City: Catania

Homepage: http://www.aeroporto.catania.it/

Metar

2021/10/25 20:20
LICC 252020Z 21002KT 9999 SCT020 17/16 Q1014

Taf

2021/10/25 18:00
TAF LICC 251700Z 2518/2618 02010KT 7000 SCT030
TEMPO 2612/2618 2500 TSRA
Gewünschte Webcam nicht vorhanden? Dann fügen Sie eine hinzu. Sie wird dann so schnell wie möglich freigeschaltet
Url: Title: